Althea — 9HAQ7 — position and weather

sailwx.info

Track history (hours):
 
Tides and Currents Weather Stations Pressure Air Temp Water Temp Dewpoint Dewpoint Depression Visibility Wind Speed Wind Dir Waves Ship Positions

Althea

Last reported at 2016-Jun-22 12:33 UTC. Time now 2016-Jun-25 19:45 UTC.
Position N 59°21' E 022°07'.

Length 170 m; draft 6.7 m.

Type: Cargo ship. MMSI: 215047000.

Date/timePositionNaut miles runAvg speedWind from/ knotsBaromVisibWave heightAir tempDewpointWater temp
2016-Jun-22 12:33N 59°21' E 022°07'1513.3
2016-Jun-22 11:24N 59°30' E 022°30'2412.7
2016-Jun-22 09:32N 59°29' E 023°17'1312.9
2016-Jun-22 08:29N 59°25' E 023°43'  
2016-Jun-15 15:18N 59°22' E 023°56'0 0.0
2016-Jun-15 14:24N 59°22' E 023°56'0 0.0
2016-Jun-15 12:03N 59°22' E 023°56'14 1.1
2016-Jun-14 23:27N 59°26' E 023°30'1213.5
2016-Jun-14 22:32N 59°28' E 023°06'2813.0
2016-Jun-14 20:22N 59°16' E 022°16'31213.0
2016-Jun-13 20:25N 55°37' E 015°24'1112.6
2016-Jun-13 19:33N 55°32' E 015°07'1212.5
2016-Jun-13 18:33N 55°26' E 014°48'1312.6
2016-Jun-13 17:33N 55°17' E 014°31'1312.6
2016-Jun-13 16:33N 55°10' E 014°13'1212.0
2016-Jun-13 15:33N 55°10' E 013°52'1811.9
2016-Jun-13 14:03N 55°11' E 013°21'612.2
2016-Jun-13 13:34N 55°12' E 013°11'1211.6
2016-Jun-13 12:33N 55°15' E 012°51'10 9.6
2016-Jun-13 11:33N 55°22' E 012°39'1211.5
2016-Jun-13 10:33N 55°33' E 012°42'10 9.9
2016-Jun-13 09:33N 55°43' E 012°41'1211.9
2016-Jun-13 08:33N 55°55' E 012°39'1111.1
2016-Jun-13 07:33N 56°05' E 012°34'1111.1
2016-Jun-13 06:33N 56°12' E 012°18'2311.6
2016-Jun-13 04:33N 56°32' E 011°58'1312.8
2016-Jun-13 03:33N 56°45' E 011°53'1313.1
2016-Jun-13 02:33N 56°57' E 011°44'1313.3
2016-Jun-13 01:33N 57°09' E 011°36'1313.4
2016-Jun-13 00:33N 57°22' E 011°28'1212.5
2016-Jun-12 23:33N 57°32' E 011°14'1313.0
2016-Jun-12 22:33N 57°38' E 010°53'7 6.1
2016-Jun-12 21:26N 57°40' E 010°41'0 0.0
2016-Jun-12 20:29N 57°40' E 010°41'0 0.0
2016-Jun-12 18:06N 57°40' E 010°41'2 3.3
2016-Jun-12 17:32N 57°41' E 010°43'7 6.7
2016-Jun-12 16:25N 57°47' E 010°33'  
Track history (hours):
 
Tides and Currents Weather Stations Pressure Air Temp Water Temp Dewpoint Dewpoint Depression Visibility Wind Speed Wind Dir Waves Ship Positions

Althea

Last reported at 2016-Jun-22 12:33 UTC. Time now 2016-Jun-25 19:45 UTC.
Position N 59°21' E 022°07'.

Length 170 m; draft 6.7 m.

Type: Cargo ship. MMSI: 215047000.

Date/timePositionNaut miles runAvg speedWind from/ knotsBaromVisibWave heightAir tempDewpointWater temp
2016-Jun-22 12:33N 59°21' E 022°07'1513.3
2016-Jun-22 11:24N 59°30' E 022°30'2412.7
2016-Jun-22 09:32N 59°29' E 023°17'1312.9
2016-Jun-22 08:29N 59°25' E 023°43'  
2016-Jun-15 15:18N 59°22' E 023°56'0 0.0
2016-Jun-15 14:24N 59°22' E 023°56'0 0.0
2016-Jun-15 12:03N 59°22' E 023°56'14 1.1
2016-Jun-14 23:27N 59°26' E 023°30'1213.5
2016-Jun-14 22:32N 59°28' E 023°06'2813.0
2016-Jun-14 20:22N 59°16' E 022°16'31213.0
2016-Jun-13 20:25N 55°37' E 015°24'1112.6
2016-Jun-13 19:33N 55°32' E 015°07'1212.5
2016-Jun-13 18:33N 55°26' E 014°48'1312.6
2016-Jun-13 17:33N 55°17' E 014°31'1312.6
2016-Jun-13 16:33N 55°10' E 014°13'1212.0
2016-Jun-13 15:33N 55°10' E 013°52'1811.9
2016-Jun-13 14:03N 55°11' E 013°21'612.2
2016-Jun-13 13:34N 55°12' E 013°11'1211.6
2016-Jun-13 12:33N 55°15' E 012°51'10 9.6
2016-Jun-13 11:33N 55°22' E 012°39'1211.5
2016-Jun-13 10:33N 55°33' E 012°42'10 9.9
2016-Jun-13 09:33N 55°43' E 012°41'1211.9
2016-Jun-13 08:33N 55°55' E 012°39'1111.1
2016-Jun-13 07:33N 56°05' E 012°34'1111.1
2016-Jun-13 06:33N 56°12' E 012°18'2311.6
2016-Jun-13 04:33N 56°32' E 011°58'1312.8
2016-Jun-13 03:33N 56°45' E 011°53'1313.1
2016-Jun-13 02:33N 56°57' E 011°44'1313.3
2016-Jun-13 01:33N 57°09' E 011°36'1313.4
2016-Jun-13 00:33N 57°22' E 011°28'1212.5
2016-Jun-12 23:33N 57°32' E 011°14'1313.0
2016-Jun-12 22:33N 57°38' E 010°53'7 6.1
2016-Jun-12 21:26N 57°40' E 010°41'0 0.0
2016-Jun-12 20:29N 57°40' E 010°41'0 0.0
2016-Jun-12 18:06N 57°40' E 010°41'2 3.3
2016-Jun-12 17:32N 57°41' E 010°43'7 6.7
2016-Jun-12 16:25N 57°47' E 010°33'  

Dump ship's entire track history